sensor_id;sensor_type;location;lat;lon;timestamp;pressure;altitude;pressure_sealevel;temperature
70389;BMP280;58659;49.050;8.530;2023-05-15T00:02:19;99279.19;;;10.65
70389;BMP280;58659;49.050;8.530;2023-05-15T00:04:45;99260.91;;;10.65
70389;BMP280;58659;49.050;8.530;2023-05-15T00:07:10;99239.66;;;10.67
70389;BMP280;58659;49.050;8.530;2023-05-15T00:09:35;99238.63;;;10.78
70389;BMP280;58659;49.050;8.530;2023-05-15T00:12:01;99240.13;;;10.76
70389;BMP280;58659;49.050;8.530;2023-05-15T00:14:27;99230.44;;;10.80
70389;BMP280;58659;49.050;8.530;2023-05-15T00:16:52;99242.47;;;10.95
70389;BMP280;58659;49.050;8.530;2023-05-15T00:19:17;99226.41;;;10.93
70389;BMP280;58659;49.050;8.530;2023-05-15T00:21:42;99222.31;;;10.95
70389;BMP280;58659;49.050;8.530;2023-05-15T00:24:08;99229.84;;;11.08
70389;BMP280;58659;49.050;8.530;2023-05-15T00:26:33;99238.44;;;11.08
70389;BMP280;58659;49.050;8.530;2023-05-15T00:28:58;99255.28;;;11.11
70389;BMP280;58659;49.050;8.530;2023-05-15T00:31:24;99256.03;;;11.11
70389;BMP280;58659;49.050;8.530;2023-05-15T00:33:49;99282.53;;;11.10
70389;BMP280;58659;49.050;8.530;2023-05-15T00:36:15;99280.66;;;11.14
70389;BMP280;58659;49.050;8.530;2023-05-15T00:38:41;99283.97;;;11.00
70389;BMP280;58659;49.050;8.530;2023-05-15T00:41:09;99286.53;;;10.96
70389;BMP280;58659;49.050;8.530;2023-05-15T00:43:35;99277.59;;;11.01
70389;BMP280;58659;49.050;8.530;2023-05-15T00:46:02;99272.38;;;11.01
70389;BMP280;58659;49.050;8.530;2023-05-15T00:48:28;99282.50;;;11.06
70389;BMP280;58659;49.050;8.530;2023-05-15T00:50:54;99287.34;;;11.08
70389;BMP280;58659;49.050;8.530;2023-05-15T00:53:22;99287.00;;;11.09
70389;BMP280;58659;49.050;8.530;2023-05-15T00:55:48;99279.88;;;11.06
70389;BMP280;58659;49.050;8.530;2023-05-15T00:58:14;99274.63;;;10.99
70389;BMP280;58659;49.050;8.530;2023-05-15T01:00:41;99271.22;;;10.95
70389;BMP280;58659;49.050;8.530;2023-05-15T01:03:06;99269.38;;;10.95
70389;BMP280;58659;49.050;8.530;2023-05-15T01:05:32;99273.06;;;10.91
70389;BMP280;58659;49.050;8.530;2023-05-15T01:10:44;99283.09;;;10.89
70389;BMP280;58659;49.050;8.530;2023-05-15T01:13:13;99285.69;;;10.82
70389;BMP280;58659;49.050;8.530;2023-05-15T01:15:38;99263.16;;;10.67
70389;BMP280;58659;49.050;8.530;2023-05-15T01:18:04;99249.28;;;10.56
70389;BMP280;58659;49.050;8.530;2023-05-15T01:20:33;99262.66;;;10.51
70389;BMP280;58659;49.050;8.530;2023-05-15T01:23:34;99227.50;;;10.37
70389;BMP280;58659;49.050;8.530;2023-05-15T01:26:15;99181.25;;;10.38
70389;BMP280;58659;49.050;8.530;2023-05-15T01:28:53;99172.31;;;10.39
70389;BMP280;58659;49.050;8.530;2023-05-15T01:31:21;99157.75;;;10.38
70389;BMP280;58659;49.050;8.530;2023-05-15T01:33:53;99161.50;;;10.40
70389;BMP280;58659;49.050;8.530;2023-05-15T01:36:34;99155.16;;;10.41
70389;BMP280;58659;49.050;8.530;2023-05-15T01:39:02;99154.09;;;10.49
70389;BMP280;58659;49.050;8.530;2023-05-15T01:41:35;99163.09;;;10.52
70389;BMP280;58659;49.050;8.530;2023-05-15T01:44:06;99178.78;;;10.56
70389;BMP280;58659;49.050;8.530;2023-05-15T01:46:35;99192.50;;;10.49
70389;BMP280;58659;49.050;8.530;2023-05-15T01:49:02;99181.31;;;10.48
70389;BMP280;58659;49.050;8.530;2023-05-15T01:51:29;99169.06;;;10.53
70389;BMP280;58659;49.050;8.530;2023-05-15T01:53:56;99159.72;;;10.52
70389;BMP280;58659;49.050;8.530;2023-05-15T01:56:23;99165.38;;;10.61
70389;BMP280;58659;49.050;8.530;2023-05-15T01:58:51;99166.53;;;10.67
70389;BMP280;58659;49.050;8.530;2023-05-15T02:01:17;99168.03;;;10.68
70389;BMP280;58659;49.050;8.530;2023-05-15T02:03:44;99166.16;;;10.68
70389;BMP280;58659;49.050;8.530;2023-05-15T02:06:10;99175.47;;;10.66
70389;BMP280;58659;49.050;8.530;2023-05-15T02:08:36;99175.88;;;10.68
70389;BMP280;58659;49.050;8.530;2023-05-15T02:11:02;99185.56;;;10.64
70389;BMP280;58659;49.050;8.530;2023-05-15T02:13:27;99172.09;;;10.62
70389;BMP280;58659;49.050;8.530;2023-05-15T02:15:54;99172.84;;;10.66
70389;BMP280;58659;49.050;8.530;2023-05-15T02:18:20;99178.88;;;10.70
70389;BMP280;58659;49.050;8.530;2023-05-15T02:20:46;99180.38;;;10.74
70389;BMP280;58659;49.050;8.530;2023-05-15T02:23:11;99182.66;;;10.79
70389;BMP280;58659;49.050;8.530;2023-05-15T02:28:16;99187.94;;;10.86
70389;BMP280;58659;49.050;8.530;2023-05-15T02:30:54;99183.50;;;10.94
70389;BMP280;58659;49.050;8.530;2023-05-15T02:33:28;99182.38;;;10.95
70389;BMP280;58659;49.050;8.530;2023-05-15T02:35:58;99199.59;;;11.03
70389;BMP280;58659;49.050;8.530;2023-05-15T02:38:34;99201.47;;;11.06
70389;BMP280;58659;49.050;8.530;2023-05-15T02:41:02;99203.69;;;11.04
70389;BMP280;58659;49.050;8.530;2023-05-15T02:43:29;99227.28;;;11.11
70389;BMP280;58659;49.050;8.530;2023-05-15T02:45:55;99225.81;;;11.17
70389;BMP280;58659;49.050;8.530;2023-05-15T02:48:21;99229.53;;;11.20
70389;BMP280;58659;49.050;8.530;2023-05-15T02:50:46;99220.59;;;11.17
70389;BMP280;58659;49.050;8.530;2023-05-15T02:53:12;99229.88;;;11.15
70389;BMP280;58659;49.050;8.530;2023-05-15T02:55:39;99223.56;;;11.19
70389;BMP280;58659;49.050;8.530;2023-05-15T02:58:05;99233.25;;;11.15
70389;BMP280;58659;49.050;8.530;2023-05-15T03:00:30;99223.91;;;11.14
70389;BMP280;58659;49.050;8.530;2023-05-15T03:02:56;99215.69;;;11.12
70389;BMP280;58659;49.050;8.530;2023-05-15T03:05:21;99222.06;;;11.11
70389;BMP280;58659;49.050;8.530;2023-05-15T03:07:46;99214.94;;;11.12
70389;BMP280;58659;49.050;8.530;2023-05-15T03:10:12;99217.94;;;11.10
70389;BMP280;58659;49.050;8.530;2023-05-15T03:12:37;99229.50;;;11.09
70389;BMP280;58659;49.050;8.530;2023-05-15T03:15:04;99213.03;;;11.05
70389;BMP280;58659;49.050;8.530;2023-05-15T03:17:30;99196.22;;;10.99
70389;BMP280;58659;49.050;8.530;2023-05-15T03:19:58;99198.41;;;10.97
70389;BMP280;58659;49.050;8.530;2023-05-15T03:22:23;99191.69;;;10.96
70389;BMP280;58659;49.050;8.530;2023-05-15T03:24:49;99187.97;;;10.93
70389;BMP280;58659;49.050;8.530;2023-05-15T03:27:14;99196.56;;;10.94
70389;BMP280;58659;49.050;8.530;2023-05-15T03:29:41;99196.56;;;10.94
70389;BMP280;58659;49.050;8.530;2023-05-15T03:32:06;99204.34;;;10.90
70389;BMP280;58659;49.050;8.530;2023-05-15T03:34:31;99199.88;;;10.91
70389;BMP280;58659;49.050;8.530;2023-05-15T03:36:59;99200.59;;;10.84
70389;BMP280;58659;49.050;8.530;2023-05-15T03:39:25;99203.19;;;10.81
70389;BMP280;58659;49.050;8.530;2023-05-15T03:41:50;99190.06;;;10.74
70389;BMP280;58659;49.050;8.530;2023-05-15T03:44:15;99201.31;;;10.78
70389;BMP280;58659;49.050;8.530;2023-05-15T03:46:40;99187.88;;;10.76
70389;BMP280;58659;49.050;8.530;2023-05-15T03:49:06;99191.25;;;10.80
70389;BMP280;58659;49.050;8.530;2023-05-15T03:51:31;99201.72;;;10.80
70389;BMP280;58659;49.050;8.530;2023-05-15T03:53:56;99188.66;;;10.80
70389;BMP280;58659;49.050;8.530;2023-05-15T03:56:22;99197.63;;;10.86
70389;BMP280;58659;49.050;8.530;2023-05-15T03:58:47;99191.31;;;10.87
70389;BMP280;58659;49.050;8.530;2023-05-15T04:01:12;99203.59;;;10.90
70389;BMP280;58659;49.050;8.530;2023-05-15T04:03:40;99198.38;;;10.90
70389;BMP280;58659;49.050;8.530;2023-05-15T04:06:06;99190.53;;;10.90
70389;BMP280;58659;49.050;8.530;2023-05-15T04:08:31;99202.91;;;10.93
70389;BMP280;58659;49.050;8.530;2023-05-15T04:10:56;99210.38;;;10.98
70389;BMP280;58659;49.050;8.530;2023-05-15T04:13:21;99213.78;;;11.02
70389;BMP280;58659;49.050;8.530;2023-05-15T04:15:47;99211.53;;;11.01
70389;BMP280;58659;49.050;8.530;2023-05-15T04:18:12;99215.28;;;11.03
70389;BMP280;58659;49.050;8.530;2023-05-15T04:20:38;99215.66;;;11.05
70389;BMP280;58659;49.050;8.530;2023-05-15T04:23:06;99219.78;;;11.06
70389;BMP280;58659;49.050;8.530;2023-05-15T04:25:34;99217.91;;;11.03
70389;BMP280;58659;49.050;8.530;2023-05-15T04:27:59;99238.09;;;11.10
70389;BMP280;58659;49.050;8.530;2023-05-15T04:30:25;99231.00;;;11.10
70389;BMP280;58659;49.050;8.530;2023-05-15T04:32:50;99235.47;;;11.13
70389;BMP280;58659;49.050;8.530;2023-05-15T04:35:16;99245.97;;;11.20
70389;BMP280;58659;49.050;8.530;2023-05-15T04:37:42;99248.97;;;11.22
70389;BMP280;58659;49.050;8.530;2023-05-15T04:40:08;99244.09;;;11.21
70389;BMP280;58659;49.050;8.530;2023-05-15T04:42:37;99242.25;;;11.21
70389;BMP280;58659;49.050;8.530;2023-05-15T04:45:05;99236.66;;;11.23
70389;BMP280;58659;49.050;8.530;2023-05-15T04:47:31;99238.94;;;11.24
70389;BMP280;58659;49.050;8.530;2023-05-15T04:49:56;99237.41;;;11.23
70389;BMP280;58659;49.050;8.530;2023-05-15T04:52:22;99230.69;;;11.22
70389;BMP280;58659;49.050;8.530;2023-05-15T04:54:47;99233.69;;;11.28
70389;BMP280;58659;49.050;8.530;2023-05-15T04:57:15;99229.22;;;11.28
70389;BMP280;58659;49.050;8.530;2023-05-15T04:59:40;99238.19;;;11.31
70389;BMP280;58659;49.050;8.530;2023-05-15T05:02:05;99238.19;;;11.31
70389;BMP280;58659;49.050;8.530;2023-05-15T05:04:31;99233.72;;;11.31
70389;BMP280;58659;49.050;8.530;2023-05-15T05:06:56;99234.13;;;11.40
70389;BMP280;58659;49.050;8.530;2023-05-15T05:09:21;99244.56;;;11.33
70389;BMP280;58659;49.050;8.530;2023-05-15T05:11:49;99241.19;;;11.33
70389;BMP280;58659;49.050;8.530;2023-05-15T05:14:17;99241.94;;;11.33
70389;BMP280;58659;49.050;8.530;2023-05-15T05:16:43;99247.19;;;11.33
70389;BMP280;58659;49.050;8.530;2023-05-15T05:19:09;99240.44;;;11.32
70389;BMP280;58659;49.050;8.530;2023-05-15T05:21:34;99239.72;;;11.35
70389;BMP280;58659;49.050;8.530;2023-05-15T05:24:00;99230.03;;;11.39
70389;BMP280;58659;49.050;8.530;2023-05-15T05:26:25;99240.88;;;11.45
70389;BMP280;58659;49.050;8.530;2023-05-15T05:28:51;99243.50;;;11.41
70389;BMP280;58659;49.050;8.530;2023-05-15T05:31:17;99233.78;;;11.42
70389;BMP280;58659;49.050;8.530;2023-05-15T05:33:42;99236.03;;;11.47
70389;BMP280;58659;49.050;8.530;2023-05-15T05:36:08;99230.78;;;11.50
70389;BMP280;58659;49.050;8.530;2023-05-15T05:38:33;99235.69;;;11.56
70389;BMP280;58659;49.050;8.530;2023-05-15T05:40:58;99224.91;;;11.64
70389;BMP280;58659;49.050;8.530;2023-05-15T05:43:25;99257.78;;;11.69
70389;BMP280;58659;49.050;8.530;2023-05-15T05:45:51;99258.53;;;11.73
70389;BMP280;58659;49.050;8.530;2023-05-15T05:48:16;99262.31;;;11.86
70389;BMP280;58659;49.050;8.530;2023-05-15T05:50:41;99278.75;;;11.86
70389;BMP280;58659;49.050;8.530;2023-05-15T05:53:07;99294.91;;;12.06
70389;BMP280;58659;49.050;8.530;2023-05-15T05:55:32;99314.72;;;12.11
70389;BMP280;58659;49.050;8.530;2023-05-15T05:57:57;99327.88;;;12.25
70389;BMP280;58659;49.050;8.530;2023-05-15T06:00:23;99326.38;;;12.45
70389;BMP280;58659;49.050;8.530;2023-05-15T06:02:53;99353.00;;;12.72
70389;BMP280;58659;49.050;8.530;2023-05-15T06:05:19;99368.00;;;12.89
70389;BMP280;58659;49.050;8.530;2023-05-15T06:07:44;99382.94;;;13.06
70389;BMP280;58659;49.050;8.530;2023-05-15T06:10:10;99412.19;;;13.08
70389;BMP280;58659;49.050;8.530;2023-05-15T06:12:37;99403.16;;;13.30
70389;BMP280;58659;49.050;8.530;2023-05-15T06:15:02;99431.25;;;13.47
70389;BMP280;58659;49.050;8.530;2023-05-15T06:17:30;99436.47;;;13.65
70389;BMP280;58659;49.050;8.530;2023-05-15T06:19:56;99458.44;;;14.10
70389;BMP280;58659;49.050;8.530;2023-05-15T06:22:21;99485.59;;;14.58
70389;BMP280;58659;49.050;8.530;2023-05-15T06:24:46;99503.75;;;15.01
70389;BMP280;58659;49.050;8.530;2023-05-15T06:27:11;99514.75;;;15.37
70389;BMP280;58659;49.050;8.530;2023-05-15T06:29:37;99530.22;;;15.31
70389;BMP280;58659;49.050;8.530;2023-05-15T06:32:02;99529.16;;;15.18
70389;BMP280;58659;49.050;8.530;2023-05-15T06:34:27;99535.94;;;15.19
70389;BMP280;58659;49.050;8.530;2023-05-15T06:36:53;99542.19;;;15.76
70389;BMP280;58659;49.050;8.530;2023-05-15T06:39:18;99560.97;;;16.16
70389;BMP280;58659;49.050;8.530;2023-05-15T06:41:43;99558.81;;;16.07
70389;BMP280;58659;49.050;8.530;2023-05-15T06:44:09;99571.03;;;16.24
70389;BMP280;58659;49.050;8.530;2023-05-15T06:46:34;99571.00;;;16.58
70389;BMP280;58659;49.050;8.530;2023-05-15T06:49:00;99567.56;;;16.61
70389;BMP280;58659;49.050;8.530;2023-05-15T06:51:25;99570.09;;;16.08
70389;BMP280;58659;49.050;8.530;2023-05-15T06:53:50;99567.16;;;15.61
70389;BMP280;58659;49.050;8.530;2023-05-15T06:56:16;99556.09;;;15.40
70389;BMP280;58659;49.050;8.530;2023-05-15T06:58:41;99554.19;;;15.40
70389;BMP280;58659;49.050;8.530;2023-05-15T07:01:08;99550.88;;;15.73
70389;BMP280;58659;49.050;8.530;2023-05-15T07:03:33;99555.19;;;15.94
70389;BMP280;58659;49.050;8.530;2023-05-15T07:05:58;99562.16;;;16.11
70389;BMP280;58659;49.050;8.530;2023-05-15T07:08:24;99572.66;;;16.15
70389;BMP280;58659;49.050;8.530;2023-05-15T07:10:50;99563.28;;;16.14
70389;BMP280;58659;49.050;8.530;2023-05-15T07:13:16;99577.59;;;16.43
70389;BMP280;58659;49.050;8.530;2023-05-15T07:15:45;99578.09;;;16.61
70389;BMP280;58659;49.050;8.530;2023-05-15T07:18:10;99570.72;;;16.52
70389;BMP280;58659;49.050;8.530;2023-05-15T07:20:36;99576.00;;;17.02
70389;BMP280;58659;49.050;8.530;2023-05-15T07:23:02;99581.69;;;17.51
70389;BMP280;58659;49.050;8.530;2023-05-15T07:25:27;99590.09;;;17.85
70389;BMP280;58659;49.050;8.530;2023-05-15T07:27:52;99585.53;;;17.66
70389;BMP280;58659;49.050;8.530;2023-05-15T07:30:18;99587.72;;;17.71
70389;BMP280;58659;49.050;8.530;2023-05-15T07:32:43;99579.25;;;17.99
70389;BMP280;58659;49.050;8.530;2023-05-15T07:35:09;99594.28;;;18.42
70389;BMP280;58659;49.050;8.530;2023-05-15T07:37:36;99588.88;;;18.65
70389;BMP280;58659;49.050;8.530;2023-05-15T07:40:01;99588.25;;;18.77
70389;BMP280;58659;49.050;8.530;2023-05-15T07:42:26;99600.19;;;18.65
70389;BMP280;58659;49.050;8.530;2023-05-15T07:44:51;99592.16;;;19.33
70389;BMP280;58659;49.050;8.530;2023-05-15T07:47:17;99597.16;;;19.89
70389;BMP280;58659;49.050;8.530;2023-05-15T07:49:42;99603.44;;;19.95
70389;BMP280;58659;49.050;8.530;2023-05-15T07:52:07;99605.72;;;20.59
70389;BMP280;58659;49.050;8.530;2023-05-15T07:54:33;99604.22;;;20.20
70389;BMP280;58659;49.050;8.530;2023-05-15T07:56:58;99595.41;;;19.70
70389;BMP280;58659;49.050;8.530;2023-05-15T07:59:23;99587.38;;;19.86
70389;BMP280;58659;49.050;8.530;2023-05-15T08:01:49;99593.22;;;20.60
70389;BMP280;58659;49.050;8.530;2023-05-15T08:04:14;99594.88;;;20.91
70389;BMP280;58659;49.050;8.530;2023-05-15T08:06:40;99582.53;;;21.32
70389;BMP280;58659;49.050;8.530;2023-05-15T08:09:07;99582.84;;;21.55
70389;BMP280;58659;49.050;8.530;2023-05-15T08:11:32;99579.34;;;21.46
70389;BMP280;58659;49.050;8.530;2023-05-15T08:13:57;99581.19;;;21.15
70389;BMP280;58659;49.050;8.530;2023-05-15T08:16:23;99587.56;;;20.58
70389;BMP280;58659;49.050;8.530;2023-05-15T08:18:48;99577.03;;;20.79
70389;BMP280;58659;49.050;8.530;2023-05-15T08:21:17;99583.03;;;21.61
70389;BMP280;58659;49.050;8.530;2023-05-15T08:23:42;99574.34;;;21.91
70389;BMP280;58659;49.050;8.530;2023-05-15T08:26:07;99585.53;;;21.86
70389;BMP280;58659;49.050;8.530;2023-05-15T08:28:32;99566.38;;;22.00
70389;BMP280;58659;49.050;8.530;2023-05-15T08:30:58;99568.75;;;21.98
70389;BMP280;58659;49.050;8.530;2023-05-15T08:33:23;99563.63;;;21.82
70389;BMP280;58659;49.050;8.530;2023-05-15T08:35:48;99563.13;;;22.05
70389;BMP280;58659;49.050;8.530;2023-05-15T08:38:14;99572.16;;;22.39
70389;BMP280;58659;49.050;8.530;2023-05-15T08:40:45;99563.38;;;22.87
70389;BMP280;58659;49.050;8.530;2023-05-15T08:43:15;99570.16;;;23.24
70389;BMP280;58659;49.050;8.530;2023-05-15T08:45:42;99563.50;;;22.83
70389;BMP280;58659;49.050;8.530;2023-05-15T08:48:10;99576.84;;;21.95
70389;BMP280;58659;49.050;8.530;2023-05-15T08:50:38;99580.81;;;21.90
70389;BMP280;58659;49.050;8.530;2023-05-15T08:53:04;99580.63;;;22.46
70389;BMP280;58659;49.050;8.530;2023-05-15T08:55:29;99570.75;;;23.28
70389;BMP280;58659;49.050;8.530;2023-05-15T08:57:55;99578.00;;;23.28
70389;BMP280;58659;49.050;8.530;2023-05-15T09:00:21;99578.44;;;22.99
70389;BMP280;58659;49.050;8.530;2023-05-15T09:02:46;99576.94;;;23.25
70389;BMP280;58659;49.050;8.530;2023-05-15T09:05:12;99572.47;;;23.49
70389;BMP280;58659;49.050;8.530;2023-05-15T09:07:38;99575.47;;;23.24
70389;BMP280;58659;49.050;8.530;2023-05-15T09:10:05;99568.63;;;23.41
70389;BMP280;58659;49.050;8.530;2023-05-15T09:12:32;99567.13;;;23.58
70389;BMP280;58659;49.050;8.530;2023-05-15T09:15:15;99562.31;;;23.81
70389;BMP280;58659;49.050;8.530;2023-05-15T09:17:49;99571.88;;;23.36
70389;BMP280;58659;49.050;8.530;2023-05-15T09:20:32;99556.38;;;22.89
70389;BMP280;58659;49.050;8.530;2023-05-15T09:22:59;99552.84;;;22.16
70389;BMP280;58659;49.050;8.530;2023-05-15T09:25:41;99564.84;;;22.21
70389;BMP280;58659;49.050;8.530;2023-05-15T09:28:10;99556.41;;;22.98
70389;BMP280;58659;49.050;8.530;2023-05-15T09:30:41;99563.84;;;23.54
70389;BMP280;58659;49.050;8.530;2023-05-15T09:33:08;99553.06;;;23.49
70389;BMP280;58659;49.050;8.530;2023-05-15T09:38:01;99547.19;;;23.77
70389;BMP280;58659;49.050;8.530;2023-05-15T09:40:30;99543.41;;;24.26
70389;BMP280;58659;49.050;8.530;2023-05-15T09:42:57;99552.00;;;24.68
70389;BMP280;58659;49.050;8.530;2023-05-15T09:45:22;99549.09;;;24.95
70389;BMP280;58659;49.050;8.530;2023-05-15T09:47:50;99538.97;;;24.46
70389;BMP280;58659;49.050;8.530;2023-05-15T09:50:22;99538.47;;;25.24
70389;BMP280;58659;49.050;8.530;2023-05-15T09:52:48;99541.91;;;25.60
70389;BMP280;58659;49.050;8.530;2023-05-15T09:55:14;99530.56;;;25.65
70389;BMP280;58659;49.050;8.530;2023-05-15T09:57:40;99529.13;;;25.84
70389;BMP280;58659;49.050;8.530;2023-05-15T10:00:06;99530.06;;;25.81
70389;BMP280;58659;49.050;8.530;2023-05-15T10:02:35;99515.75;;;26.04
70389;BMP280;58659;49.050;8.530;2023-05-15T10:05:03;99527.47;;;26.27
70389;BMP280;58659;49.050;8.530;2023-05-15T10:07:30;99524.09;;;26.32
70389;BMP280;58659;49.050;8.530;2023-05-15T10:09:57;99526.59;;;26.15
70389;BMP280;58659;49.050;8.530;2023-05-15T10:12:23;99520.56;;;26.40
70389;BMP280;58659;49.050;8.530;2023-05-15T10:14:49;99519.63;;;26.95
70389;BMP280;58659;49.050;8.530;2023-05-15T10:17:15;99507.56;;;27.10
70389;BMP280;58659;49.050;8.530;2023-05-15T10:19:41;99508.19;;;27.31
70389;BMP280;58659;49.050;8.530;2023-05-15T10:22:06;99492.16;;;26.28
70389;BMP280;58659;49.050;8.530;2023-05-15T10:24:33;99507.22;;;26.97
70389;BMP280;58659;49.050;8.530;2023-05-15T10:26:59;99502.72;;;27.56
70389;BMP280;58659;49.050;8.530;2023-05-15T10:29:27;99496.13;;;27.57
70389;BMP280;58659;49.050;8.530;2023-05-15T10:31:53;99499.72;;;27.91
70389;BMP280;58659;49.050;8.530;2023-05-15T10:34:19;99494.53;;;27.77
70389;BMP280;58659;49.050;8.530;2023-05-15T10:36:45;99493.88;;;26.51
70389;BMP280;58659;49.050;8.530;2023-05-15T10:39:14;99489.59;;;26.59
70389;BMP280;58659;49.050;8.530;2023-05-15T10:41:40;99494.63;;;26.52
70389;BMP280;58659;49.050;8.530;2023-05-15T10:44:07;99490.75;;;26.33
70389;BMP280;58659;49.050;8.530;2023-05-15T10:46:34;99480.31;;;26.35
70389;BMP280;58659;49.050;8.530;2023-05-15T10:48:59;99484.69;;;26.83
70389;BMP280;58659;49.050;8.530;2023-05-15T10:51:30;99474.06;;;27.31
70389;BMP280;58659;49.050;8.530;2023-05-15T10:53:59;99467.94;;;27.73
70389;BMP280;58659;49.050;8.530;2023-05-15T10:56:27;99466.91;;;28.57
70389;BMP280;58659;49.050;8.530;2023-05-15T10:58:54;99448.84;;;27.18
70389;BMP280;58659;49.050;8.530;2023-05-15T11:01:30;99458.06;;;26.49
70389;BMP280;58659;49.050;8.530;2023-05-15T11:04:15;99454.97;;;26.10
70389;BMP280;58659;49.050;8.530;2023-05-15T11:06:45;99455.75;;;26.36
70389;BMP280;58659;49.050;8.530;2023-05-15T11:14:19;99436.72;;;26.60
70389;BMP280;58659;49.050;8.530;2023-05-15T11:21:55;99450.22;;;27.02
70389;BMP280;58659;49.050;8.530;2023-05-15T11:27:11;99438.00;;;26.96
70389;BMP280;58659;49.050;8.530;2023-05-15T11:29:39;99432.19;;;25.40
70389;BMP280;58659;49.050;8.530;2023-05-15T11:33:22;99425.09;;;24.58
70389;BMP280;58659;49.050;8.530;2023-05-15T11:35:21;99431.13;;;24.44
70389;BMP280;58659;49.050;8.530;2023-05-15T11:40:12;99452.84;;;23.66
70389;BMP280;58659;49.050;8.530;2023-05-15T11:42:39;99448.22;;;22.65
70389;BMP280;58659;49.050;8.530;2023-05-15T11:45:04;99456.31;;;21.67
70389;BMP280;58659;49.050;8.530;2023-05-15T11:47:30;99461.34;;;20.91
70389;BMP280;58659;49.050;8.530;2023-05-15T11:49:56;99466.72;;;20.06
70389;BMP280;58659;49.050;8.530;2023-05-15T11:52:22;99470.59;;;19.64
70389;BMP280;58659;49.050;8.530;2023-05-15T11:54:48;99481.63;;;19.21
70389;BMP280;58659;49.050;8.530;2023-05-15T11:57:14;99478.06;;;18.83
70389;BMP280;58659;49.050;8.530;2023-05-15T11:59:39;99466.19;;;18.43
70389;BMP280;58659;49.050;8.530;2023-05-15T12:02:04;99459.94;;;17.81
70389;BMP280;58659;49.050;8.530;2023-05-15T12:04:29;99430.97;;;17.58
70389;BMP280;58659;49.050;8.530;2023-05-15T12:06:57;99416.16;;;17.05
70389;BMP280;58659;49.050;8.530;2023-05-15T12:09:25;99391.78;;;16.74
70389;BMP280;58659;49.050;8.530;2023-05-15T12:11:55;99401.03;;;16.63
70389;BMP280;58659;49.050;8.530;2023-05-15T12:14:27;99369.94;;;16.74
70389;BMP280;58659;49.050;8.530;2023-05-15T12:16:53;99418.13;;;17.21
70389;BMP280;58659;49.050;8.530;2023-05-15T12:19:26;99428.19;;;17.85
70389;BMP280;58659;49.050;8.530;2023-05-15T12:21:51;99444.44;;;18.35
70389;BMP280;58659;49.050;8.530;2023-05-15T12:24:18;99444.53;;;18.64
70389;BMP280;58659;49.050;8.530;2023-05-15T12:26:44;99441.50;;;18.94
70389;BMP280;58659;49.050;8.530;2023-05-15T12:29:10;99432.22;;;19.02
70389;BMP280;58659;49.050;8.530;2023-05-15T12:31:36;99434.84;;;19.02
70389;BMP280;58659;49.050;8.530;2023-05-15T12:34:02;99432.16;;;19.18
70389;BMP280;58659;49.050;8.530;2023-05-15T12:36:28;99433.19;;;19.21
70389;BMP280;58659;49.050;8.530;2023-05-15T12:38:55;99439.78;;;19.29
70389;BMP280;58659;49.050;8.530;2023-05-15T12:41:21;99439.44;;;19.14
70389;BMP280;58659;49.050;8.530;2023-05-15T12:43:50;99436.47;;;19.12
70389;BMP280;58659;49.050;8.530;2023-05-15T12:46:21;99440.91;;;19.44
70389;BMP280;58659;49.050;8.530;2023-05-15T12:48:46;99445.06;;;19.57
70389;BMP280;58659;49.050;8.530;2023-05-15T12:51:15;99444.22;;;19.86
70389;BMP280;58659;49.050;8.530;2023-05-15T12:53:41;99449.75;;;19.79
70389;BMP280;58659;49.050;8.530;2023-05-15T12:56:13;99443.78;;;20.25
70389;BMP280;58659;49.050;8.530;2023-05-15T12:58:39;99445.41;;;21.13
70389;BMP280;58659;49.050;8.530;2023-05-15T13:01:05;99449.59;;;21.84
70389;BMP280;58659;49.050;8.530;2023-05-15T13:03:30;99438.78;;;22.46
70389;BMP280;58659;49.050;8.530;2023-05-15T13:05:56;99429.13;;;22.93
70389;BMP280;58659;49.050;8.530;2023-05-15T13:08:21;99438.84;;;23.06
70389;BMP280;58659;49.050;8.530;2023-05-15T13:10:55;99430.03;;;23.32
70389;BMP280;58659;49.050;8.530;2023-05-15T13:13:20;99425.75;;;23.35
70389;BMP280;58659;49.050;8.530;2023-05-15T13:15:47;99433.94;;;23.22
70389;BMP280;58659;49.050;8.530;2023-05-15T13:18:14;99424.84;;;23.70
70389;BMP280;58659;49.050;8.530;2023-05-15T13:20:46;99421.16;;;23.68
70389;BMP280;58659;49.050;8.530;2023-05-15T13:23:14;99418.72;;;24.41
70389;BMP280;58659;49.050;8.530;2023-05-15T13:25:40;99413.22;;;24.74
70389;BMP280;58659;49.050;8.530;2023-05-15T13:28:07;99418.03;;;25.19
70389;BMP280;58659;49.050;8.530;2023-05-15T13:30:33;99416.72;;;25.84
70389;BMP280;58659;49.050;8.530;2023-05-15T13:32:59;99414.13;;;26.15
70389;BMP280;58659;49.050;8.530;2023-05-15T13:35:25;99399.75;;;26.38
70389;BMP280;58659;49.050;8.530;2023-05-15T13:37:51;99401.03;;;25.97
70389;BMP280;58659;49.050;8.530;2023-05-15T13:40:16;99395.81;;;26.08
70389;BMP280;58659;49.050;8.530;2023-05-15T13:42:42;99403.19;;;25.93
70389;BMP280;58659;49.050;8.530;2023-05-15T13:45:12;99400.81;;;25.75
70389;BMP280;58659;49.050;8.530;2023-05-15T13:47:38;99403.31;;;25.44
70389;BMP280;58659;49.050;8.530;2023-05-15T13:50:11;99403.09;;;24.63
70389;BMP280;58659;49.050;8.530;2023-05-15T13:52:37;99397.88;;;24.30
70389;BMP280;58659;49.050;8.530;2023-05-15T13:55:03;99399.00;;;23.53
70389;BMP280;58659;49.050;8.530;2023-05-15T13:57:29;99409.91;;;22.62
70389;BMP280;58659;49.050;8.530;2023-05-15T13:59:55;99405.25;;;21.81
70389;BMP280;58659;49.050;8.530;2023-05-15T14:02:21;99409.63;;;21.57
70389;BMP280;58659;49.050;8.530;2023-05-15T14:04:50;99416.19;;;21.43
70389;BMP280;58659;49.050;8.530;2023-05-15T14:07:15;99419.72;;;21.10
70389;BMP280;58659;49.050;8.530;2023-05-15T14:09:41;99415.41;;;21.03
70389;BMP280;58659;49.050;8.530;2023-05-15T14:12:06;99424.53;;;20.80
70389;BMP280;58659;49.050;8.530;2023-05-15T14:14:33;99421.47;;;20.35
70389;BMP280;58659;49.050;8.530;2023-05-15T14:16:59;99418.13;;;20.09
70389;BMP280;58659;49.050;8.530;2023-05-15T14:19:24;99424.69;;;20.30
70389;BMP280;58659;49.050;8.530;2023-05-15T14:21:49;99421.13;;;21.02
70389;BMP280;58659;49.050;8.530;2023-05-15T14:24:15;99428.84;;;21.61
70389;BMP280;58659;49.050;8.530;2023-05-15T14:26:40;99425.06;;;21.89
70389;BMP280;58659;49.050;8.530;2023-05-15T14:29:07;99418.47;;;22.03
70389;BMP280;58659;49.050;8.530;2023-05-15T14:31:33;99428.94;;;21.97